createdAt,value
2019-03-27T00:01:02.687Z,0
2019-03-27T00:02:05.136Z,0
2019-03-27T00:03:07.508Z,0
2019-03-27T00:04:09.539Z,0
2019-03-27T00:05:11.582Z,0
2019-03-27T00:06:13.890Z,0
2019-03-27T00:07:16.320Z,0
2019-03-27T00:08:18.354Z,0
2019-03-27T00:09:20.384Z,0
2019-03-27T00:10:22.407Z,0
2019-03-27T00:11:24.441Z,0
2019-03-27T00:12:26.783Z,0
2019-03-27T00:13:28.816Z,0
2019-03-27T00:14:30.867Z,0
2019-03-27T00:15:33.712Z,0
2019-03-27T00:16:35.801Z,0
2019-03-27T00:17:37.860Z,0
2019-03-27T00:18:39.889Z,0
2019-03-27T00:19:41.913Z,0
2019-03-27T00:20:44.038Z,0
2019-03-27T00:21:46.070Z,0
2019-03-27T00:22:48.400Z,0
2019-03-27T00:23:50.731Z,0
2019-03-27T00:24:52.774Z,0
2019-03-27T00:25:55.081Z,0
2019-03-27T00:26:57.409Z,0
2019-03-27T00:27:59.439Z,0
2019-03-27T00:29:01.475Z,0
2019-03-27T00:30:03.511Z,0
2019-03-27T00:31:05.560Z,0
2019-03-27T00:32:07.878Z,0
2019-03-27T00:33:09.911Z,0
2019-03-27T00:34:11.957Z,0
2019-03-27T00:35:14.261Z,0
2019-03-27T00:36:16.317Z,0
2019-03-27T00:37:18.349Z,0
2019-03-27T00:38:20.374Z,0
2019-03-27T00:39:22.726Z,0
2019-03-27T00:40:24.753Z,0
2019-03-27T00:41:26.785Z,0
2019-03-27T00:42:28.816Z,0
2019-03-27T00:43:30.856Z,0
2019-03-27T00:44:32.884Z,0
2019-03-27T00:45:34.918Z,0
2019-03-27T00:46:36.956Z,0
2019-03-27T00:47:38.980Z,0
2019-03-27T00:48:41.452Z,0
2019-03-27T00:49:43.546Z,0
2019-03-27T00:50:45.600Z,0
2019-03-27T00:51:47.632Z,0
2019-03-27T00:52:49.685Z,0
2019-03-27T00:53:51.715Z,0
2019-03-27T00:54:53.755Z,0
2019-03-27T00:55:55.840Z,0
2019-03-27T00:56:57.859Z,0
2019-03-27T00:57:59.894Z,0
2019-03-27T00:59:02.018Z,0
2019-03-27T01:00:04.046Z,0
2019-03-27T01:01:06.088Z,0
2019-03-27T01:02:08.415Z,0
2019-03-27T01:03:10.445Z,0
2019-03-27T01:04:12.507Z,0
2019-03-27T01:05:14.536Z,0
2019-03-27T01:06:16.587Z,0
2019-03-27T01:07:18.616Z,0
2019-03-27T01:08:20.664Z,0
2019-03-27T01:09:22.692Z,0
2019-03-27T01:10:24.722Z,0
2019-03-27T01:11:27.035Z,0
2019-03-27T01:12:29.065Z,0
2019-03-27T01:13:31.098Z,0
2019-03-27T01:14:33.127Z,0
2019-03-27T01:15:41.449Z,0
2019-03-27T01:16:43.495Z,0
2019-03-27T01:17:45.909Z,0
2019-03-27T01:18:47.948Z,0
2019-03-27T01:19:49.979Z,0
2019-03-27T01:20:51.998Z,0
2019-03-27T01:21:54.420Z,0
2019-03-27T01:22:56.471Z,0
2019-03-27T01:23:58.775Z,0
2019-03-27T01:25:00.981Z,0
2019-03-27T01:26:03.298Z,0
2019-03-27T01:27:05.334Z,0
2019-03-27T01:28:07.377Z,0
2019-03-27T01:29:09.411Z,0
2019-03-27T01:30:11.433Z,0
2019-03-27T01:31:13.467Z,0
2019-03-27T01:32:15.520Z,0
2019-03-27T01:33:17.927Z,0
2019-03-27T01:34:19.963Z,0
2019-03-27T01:35:22.044Z,0
2019-03-27T01:36:24.789Z,0
2019-03-27T01:37:26.870Z,0
2019-03-27T01:38:30.228Z,0
2019-03-27T01:39:32.265Z,0
2019-03-27T01:40:34.305Z,0
2019-03-27T01:41:36.354Z,0
2019-03-27T01:42:38.674Z,0
2019-03-27T01:43:40.998Z,0
2019-03-27T01:44:43.042Z,0
2019-03-27T01:45:54.870Z,0
2019-03-27T01:46:57.307Z,0
2019-03-27T01:47:59.342Z,0
2019-03-27T01:49:01.379Z,0
2019-03-27T01:50:03.689Z,0
2019-03-27T01:51:05.726Z,0
2019-03-27T01:52:10.094Z,0
2019-03-27T01:53:12.122Z,0
2019-03-27T01:54:14.168Z,0
2019-03-27T01:55:16.272Z,0
2019-03-27T01:56:18.695Z,0
2019-03-27T01:57:20.744Z,0
2019-03-27T01:58:22.773Z,0
2019-03-27T01:59:24.804Z,0
2019-03-27T02:00:26.838Z,0
2019-03-27T02:01:28.886Z,0
2019-03-27T02:02:30.931Z,0
2019-03-27T02:03:32.969Z,0
2019-03-27T02:04:35.001Z,0
2019-03-27T02:05:37.097Z,0
2019-03-27T02:06:39.149Z,0
2019-03-27T02:07:41.175Z,0
2019-03-27T02:08:43.875Z,0
2019-03-27T02:09:45.916Z,0
2019-03-27T02:10:47.935Z,0
2019-03-27T02:11:50.367Z,0
2019-03-27T02:12:52.405Z,0
2019-03-27T02:13:54.839Z,0
2019-03-27T02:14:56.854Z,0
2019-03-27T02:16:08.869Z,0
2019-03-27T02:17:10.993Z,0
2019-03-27T02:18:13.320Z,0
2019-03-27T02:19:15.367Z,0
2019-03-27T02:20:17.680Z,0
2019-03-27T02:21:19.722Z,0
2019-03-27T02:22:22.056Z,0
2019-03-27T02:23:24.380Z,0
2019-03-27T02:24:26.687Z,0
2019-03-27T02:25:28.721Z,0
2019-03-27T02:26:30.755Z,0
2019-03-27T02:27:32.773Z,0
2019-03-27T02:28:34.830Z,0
2019-03-27T02:29:37.814Z,0
2019-03-27T02:30:40.246Z,0
2019-03-27T02:31:42.288Z,0
2019-03-27T02:32:44.722Z,0
2019-03-27T02:33:46.956Z,0
2019-03-27T02:34:49.281Z,0
2019-03-27T02:35:51.324Z,0
2019-03-27T02:36:53.956Z,0
2019-03-27T02:37:57.106Z,0
2019-03-27T02:38:59.727Z,0
2019-03-27T02:40:02.442Z,0
2019-03-27T02:41:04.572Z,0
2019-03-27T02:42:06.635Z,0
2019-03-27T02:43:08.965Z,0
2019-03-27T02:44:11.665Z,0
2019-03-27T02:45:14.341Z,0
2019-03-27T02:46:27.049Z,0
2019-03-27T02:47:29.396Z,0
2019-03-27T02:48:32.581Z,0
2019-03-27T02:49:35.415Z,0
2019-03-27T02:50:37.480Z,0
2019-03-27T02:51:39.511Z,0
2019-03-27T02:52:41.878Z,0
2019-03-27T02:53:43.990Z,0
2019-03-27T02:54:46.043Z,0
2019-03-27T02:55:48.146Z,0
2019-03-27T02:56:50.221Z,0
2019-03-27T02:57:52.553Z,0
2019-03-27T02:58:54.724Z,0
2019-03-27T02:59:57.054Z,0
2019-03-27T03:00:59.989Z,0
2019-03-27T03:02:02.740Z,0
2019-03-27T03:03:05.642Z,0
2019-03-27T03:04:07.950Z,0
2019-03-27T03:05:10.678Z,0
2019-03-27T03:06:13.314Z,0
2019-03-27T03:07:15.465Z,0
2019-03-27T03:08:18.081Z,0
2019-03-27T03:09:20.402Z,0
2019-03-27T03:10:22.724Z,0
2019-03-27T03:11:24.783Z,0
2019-03-27T03:12:27.730Z,0
2019-03-27T03:13:29.759Z,0
2019-03-27T03:14:31.820Z,0
2019-03-27T03:15:34.160Z,0
2019-03-27T03:16:44.875Z,0
2019-03-27T03:17:47.209Z,0
2019-03-27T03:18:49.706Z,0
2019-03-27T03:19:51.750Z,0
2019-03-27T03:20:54.181Z,0
2019-03-27T03:21:57.021Z,0
2019-03-27T03:22:59.461Z,0
2019-03-27T03:24:02.282Z,0
2019-03-27T03:25:04.735Z,0
2019-03-27T03:26:06.757Z,0
2019-03-27T03:27:09.091Z,0
2019-03-27T03:28:11.157Z,0
2019-03-27T03:29:13.492Z,0
2019-03-27T03:30:15.663Z,0
2019-03-27T03:31:18.629Z,0
2019-03-27T03:32:21.077Z,0
2019-03-27T03:33:23.469Z,0
2019-03-27T03:34:26.004Z,0
2019-03-27T03:35:28.408Z,0
2019-03-27T03:36:30.452Z,0
2019-03-27T03:37:32.529Z,0
2019-03-27T03:38:35.250Z,0
2019-03-27T03:39:38.102Z,0
2019-03-27T03:40:40.561Z,0
2019-03-27T03:41:42.648Z,0
2019-03-27T03:42:45.008Z,0
2019-03-27T03:43:47.752Z,0
2019-03-27T03:44:50.093Z,0
2019-03-27T03:45:52.467Z,0
2019-03-27T03:47:02.231Z,0
2019-03-27T03:48:04.588Z,0
2019-03-27T03:49:07.211Z,0
2019-03-27T03:50:10.226Z,0
2019-03-27T03:51:12.283Z,0
2019-03-27T03:52:14.627Z,0
2019-03-27T03:53:17.365Z,0
2019-03-27T03:54:19.670Z,0
2019-03-27T03:55:22.602Z,0
2019-03-27T03:56:24.674Z,0
2019-03-27T03:57:27.379Z,0
2019-03-27T03:58:29.734Z,0
2019-03-27T03:59:31.766Z,0
2019-03-27T04:00:34.131Z,0
2019-03-27T04:01:36.502Z,0
2019-03-27T04:02:38.943Z,0
2019-03-27T04:03:41.350Z,0
2019-03-27T04:04:43.666Z,0
2019-03-27T04:05:46.009Z,0
2019-03-27T04:06:48.917Z,0
2019-03-27T04:07:51.276Z,0
2019-03-27T04:08:53.339Z,0
2019-03-27T04:09:55.404Z,0
2019-03-27T04:10:57.751Z,0
2019-03-27T04:12:00.079Z,0
2019-03-27T04:13:02.159Z,0
2019-03-27T04:14:05.342Z,0
2019-03-27T04:15:07.778Z,0
2019-03-27T04:16:10.112Z,0
2019-03-27T04:17:19.887Z,0
2019-03-27T04:18:22.482Z,0
2019-03-27T04:19:24.801Z,0
2019-03-27T04:20:27.548Z,0
2019-03-27T04:21:29.876Z,0
2019-03-27T04:22:31.930Z,0
2019-03-27T04:23:33.960Z,0
2019-03-27T04:24:36.025Z,0
2019-03-27T04:26:12.015Z,0
2019-03-27T04:27:14.485Z,0
2019-03-27T04:28:16.998Z,0
2019-03-27T04:29:19.376Z,0
2019-03-27T04:30:21.716Z,0
2019-03-27T04:31:24.153Z,0
2019-03-27T04:32:26.240Z,0
2019-03-27T04:33:28.682Z,0
2019-03-27T04:34:31.017Z,0
2019-03-27T04:35:33.631Z,0
2019-03-27T04:36:35.671Z,0
2019-03-27T04:37:38.087Z,0
2019-03-27T04:38:40.824Z,0
2019-03-27T04:39:43.144Z,0
2019-03-27T04:40:45.183Z,0
2019-03-27T04:41:47.536Z,0
2019-03-27T04:42:49.565Z,0
2019-03-27T04:43:51.598Z,0
2019-03-27T04:44:53.644Z,0
2019-03-27T04:45:56.253Z,0
2019-03-27T04:46:59.038Z,0
2019-03-27T04:48:01.383Z,0
2019-03-27T04:49:09.546Z,0
2019-03-27T04:50:12.017Z,0
2019-03-27T04:51:14.064Z,0
2019-03-27T04:52:16.100Z,0
2019-03-27T04:53:18.123Z,0
2019-03-27T04:54:20.455Z,0
2019-03-27T04:55:22.481Z,0
2019-03-27T04:56:24.518Z,0
2019-03-27T04:57:26.940Z,1
2019-03-27T04:58:29.243Z,1
2019-03-27T04:59:31.290Z,1
2019-03-27T05:00:33.610Z,1
2019-03-27T05:01:35.653Z,1
2019-03-27T05:02:37.978Z,1
2019-03-27T05:03:40.305Z,1
2019-03-27T05:04:42.917Z,1
2019-03-27T05:05:45.252Z,1
2019-03-27T05:06:47.270Z,1
2019-03-27T05:07:49.314Z,2
2019-03-27T05:08:51.673Z,2
2019-03-27T05:09:54.092Z,2
2019-03-27T05:10:56.113Z,2
2019-03-27T05:11:58.541Z,2
2019-03-27T05:13:00.594Z,2
2019-03-27T05:14:02.617Z,3
2019-03-27T05:15:04.664Z,3
2019-03-27T05:16:06.767Z,3
2019-03-27T05:17:08.803Z,2
2019-03-27T05:18:10.895Z,2
2019-03-27T05:19:13.548Z,2
2019-03-27T05:20:15.585Z,2
2019-03-27T05:21:17.638Z,3
2019-03-27T05:22:19.662Z,3
2019-03-27T05:23:21.793Z,4
2019-03-27T05:24:23.847Z,4
2019-03-27T05:25:25.892Z,5
2019-03-27T05:26:27.915Z,5
2019-03-27T05:27:29.962Z,6
2019-03-27T05:28:31.982Z,6
2019-03-27T05:29:34.081Z,6
2019-03-27T05:30:36.123Z,5
2019-03-27T05:31:38.427Z,5
2019-03-27T05:32:40.490Z,5
2019-03-27T05:33:42.526Z,5
2019-03-27T05:34:44.904Z,5
2019-03-27T05:35:46.928Z,5
2019-03-27T05:36:49.245Z,5
2019-03-27T05:37:51.278Z,5
2019-03-27T05:38:53.375Z,5
2019-03-27T05:39:55.428Z,5
2019-03-27T05:40:57.455Z,5
2019-03-27T05:41:59.507Z,6
2019-03-27T05:43:02.650Z,7
2019-03-27T05:44:05.000Z,6
2019-03-27T05:45:07.421Z,6
2019-03-27T05:46:09.449Z,7
2019-03-27T05:47:11.496Z,7
2019-03-27T05:48:13.537Z,7
2019-03-27T05:49:15.586Z,8
2019-03-27T05:50:18.020Z,8
2019-03-27T05:51:20.057Z,7
2019-03-27T05:52:22.374Z,7
2019-03-27T05:53:24.405Z,7
2019-03-27T05:54:26.728Z,7
2019-03-27T05:55:28.801Z,7
2019-03-27T05:56:30.838Z,7
2019-03-27T05:57:32.865Z,7
2019-03-27T05:58:34.896Z,7
2019-03-27T05:59:36.945Z,8
2019-03-27T06:00:38.960Z,8
2019-03-27T06:01:40.999Z,9
2019-03-27T06:02:43.315Z,9
2019-03-27T06:03:45.632Z,9
2019-03-27T06:04:47.960Z,9
2019-03-27T06:05:49.986Z,10
2019-03-27T06:06:52.033Z,11
2019-03-27T06:07:54.057Z,12
2019-03-27T06:08:56.113Z,13
2019-03-27T06:09:58.140Z,14
2019-03-27T06:11:00.458Z,14
2019-03-27T06:12:02.524Z,15
2019-03-27T06:13:04.558Z,16
2019-03-27T06:14:06.600Z,17
2019-03-27T06:15:08.932Z,17
2019-03-27T06:16:10.973Z,18
2019-03-27T06:17:13.064Z,18
2019-03-27T06:18:15.148Z,17
2019-03-27T06:19:17.195Z,17
2019-03-27T06:20:19.265Z,16
2019-03-27T06:21:21.562Z,15
2019-03-27T06:22:23.896Z,15
2019-03-27T06:23:25.976Z,14
2019-03-27T06:24:28.016Z,13
2019-03-27T06:25:30.075Z,13
2019-03-27T06:26:32.109Z,14
2019-03-27T06:27:34.150Z,15
2019-03-27T06:28:36.199Z,17
2019-03-27T06:29:38.237Z,20
2019-03-27T06:30:40.261Z,23
2019-03-27T06:31:42.292Z,24
2019-03-27T06:32:44.359Z,24
2019-03-27T06:33:46.375Z,24
2019-03-27T06:34:48.411Z,23
2019-03-27T06:35:51.011Z,23
2019-03-27T06:36:53.315Z,22
2019-03-27T06:37:55.370Z,23
2019-03-27T06:38:57.395Z,24
2019-03-27T06:39:59.811Z,23
2019-03-27T06:41:01.881Z,24
2019-03-27T06:42:03.949Z,25
2019-03-27T06:43:05.990Z,27
2019-03-27T06:44:08.024Z,28
2019-03-27T06:45:10.084Z,29
2019-03-27T06:46:12.106Z,29
2019-03-27T06:47:14.163Z,26
2019-03-27T06:48:28.065Z,27
2019-03-27T06:49:30.405Z,27
2019-03-27T06:50:32.421Z,27
2019-03-27T06:51:41.764Z,29
2019-03-27T06:52:44.084Z,30
2019-03-27T06:53:46.117Z,28
2019-03-27T06:54:48.163Z,28
2019-03-27T06:55:50.195Z,26
2019-03-27T06:56:52.235Z,26
2019-03-27T06:57:54.940Z,27
2019-03-27T06:58:56.983Z,29
2019-03-27T06:59:59.019Z,32
2019-03-27T07:01:01.443Z,31
2019-03-27T07:02:03.766Z,30
2019-03-27T07:03:06.080Z,31
2019-03-27T07:04:12.228Z,31
2019-03-27T07:05:14.552Z,27
2019-03-27T07:06:16.595Z,29
2019-03-27T07:07:18.616Z,30
2019-03-27T07:08:20.662Z,29
2019-03-27T07:09:22.700Z,32
2019-03-27T07:10:24.737Z,34
2019-03-27T07:11:26.790Z,36
2019-03-27T07:12:28.820Z,37
2019-03-27T07:13:30.857Z,41
2019-03-27T07:14:32.876Z,45
2019-03-27T07:15:37.199Z,46
2019-03-27T07:16:39.308Z,50
2019-03-27T07:17:41.359Z,47
2019-03-27T07:18:43.404Z,44
2019-03-27T07:19:45.721Z,43
2019-03-27T07:20:47.764Z,41
2019-03-27T07:21:49.887Z,42
2019-03-27T07:22:51.928Z,44
2019-03-27T07:23:53.946Z,38
2019-03-27T07:24:55.987Z,35
2019-03-27T07:25:58.120Z,33
2019-03-27T07:27:00.148Z,34
2019-03-27T07:28:02.192Z,35
2019-03-27T07:29:04.225Z,36
2019-03-27T07:30:06.928Z,37
2019-03-27T07:31:09.003Z,38
2019-03-27T07:32:11.047Z,41
2019-03-27T07:33:13.110Z,43
2019-03-27T07:34:15.165Z,40
2019-03-27T07:35:17.566Z,37
2019-03-27T07:36:19.604Z,39
2019-03-27T07:37:21.635Z,36
2019-03-27T07:38:23.665Z,38
2019-03-27T07:39:25.712Z,41
2019-03-27T07:40:27.728Z,46
2019-03-27T07:41:29.766Z,47
2019-03-27T07:42:31.811Z,51
2019-03-27T07:43:33.922Z,56
2019-03-27T07:44:35.971Z,57
2019-03-27T07:45:38.302Z,54
2019-03-27T07:46:40.735Z,55
2019-03-27T07:47:43.061Z,55
2019-03-27T07:48:55.720Z,50
2019-03-27T07:49:57.803Z,52
2019-03-27T07:50:59.845Z,47
2019-03-27T07:52:01.884Z,42
2019-03-27T07:53:04.239Z,48
2019-03-27T07:54:06.298Z,43
2019-03-27T07:55:21.405Z,46
2019-03-27T07:56:23.445Z,39
2019-03-27T07:57:25.475Z,42
2019-03-27T07:58:27.579Z,44
2019-03-27T07:59:29.622Z,41
2019-03-27T08:00:31.662Z,35
2019-03-27T08:01:33.710Z,33
2019-03-27T08:02:35.736Z,33
2019-03-27T08:03:37.771Z,34
2019-03-27T08:04:40.207Z,40
2019-03-27T08:05:42.239Z,38
2019-03-27T08:06:44.290Z,40
2019-03-27T08:07:46.410Z,39
2019-03-27T08:08:48.525Z,44
2019-03-27T08:09:50.615Z,49
2019-03-27T08:10:52.659Z,49
2019-03-27T08:11:54.700Z,44
2019-03-27T08:12:57.007Z,40
2019-03-27T08:13:59.058Z,39
2019-03-27T08:15:01.260Z,47
2019-03-27T08:16:03.605Z,51
2019-03-27T08:17:05.645Z,45
2019-03-27T08:18:08.263Z,45
2019-03-27T08:19:10.322Z,43
2019-03-27T08:20:12.449Z,43
2019-03-27T08:21:14.882Z,52
2019-03-27T08:22:16.911Z,59
2019-03-27T08:23:19.042Z,58
2019-03-27T08:24:21.076Z,58
2019-03-27T08:25:23.119Z,58
2019-03-27T08:26:25.168Z,56
2019-03-27T08:27:27.223Z,56
2019-03-27T08:28:29.275Z,48
2019-03-27T08:29:31.714Z,37
2019-03-27T08:30:33.762Z,53
2019-03-27T08:31:36.164Z,60
2019-03-27T08:32:38.951Z,65
2019-03-27T08:33:41.375Z,64
2019-03-27T08:34:44.616Z,58
2019-03-27T08:35:46.658Z,53
2019-03-27T08:36:48.706Z,40
2019-03-27T08:37:50.768Z,47
2019-03-27T08:38:53.084Z,51
2019-03-27T08:39:55.513Z,51
2019-03-27T08:40:57.552Z,48
2019-03-27T08:41:59.596Z,44
2019-03-27T08:43:02.581Z,47
2019-03-27T08:44:04.610Z,69
2019-03-27T08:45:06.944Z,81
2019-03-27T08:46:08.990Z,69
2019-03-27T08:47:11.034Z,67
2019-03-27T08:48:13.127Z,55
2019-03-27T08:49:23.692Z,52
2019-03-27T08:50:25.750Z,44
2019-03-27T08:51:27.769Z,48
2019-03-27T08:52:29.811Z,56
2019-03-27T08:53:31.846Z,59
2019-03-27T08:54:33.899Z,62
2019-03-27T08:55:35.961Z,57
2019-03-27T08:56:38.031Z,52
2019-03-27T08:57:40.070Z,50
2019-03-27T08:58:42.384Z,38
2019-03-27T08:59:44.435Z,40
2019-03-27T09:00:46.472Z,39
2019-03-27T09:01:48.508Z,39
2019-03-27T09:02:50.542Z,35
2019-03-27T09:03:52.587Z,35
2019-03-27T09:04:54.619Z,34
2019-03-27T09:05:56.656Z,27
2019-03-27T09:06:58.693Z,28
2019-03-27T09:08:00.713Z,30
2019-03-27T09:09:02.762Z,36
2019-03-27T09:10:04.796Z,40
2019-03-27T09:11:06.824Z,38
2019-03-27T09:12:08.862Z,44
2019-03-27T09:13:10.902Z,40
2019-03-27T09:14:12.942Z,36
2019-03-27T09:15:14.987Z,29
2019-03-27T09:16:17.332Z,32
2019-03-27T09:17:19.368Z,31
2019-03-27T09:18:21.445Z,32
2019-03-27T09:19:37.469Z,34
2019-03-27T09:20:39.495Z,38
2019-03-27T09:21:41.535Z,46
2019-03-27T09:22:43.853Z,50
2019-03-27T09:23:47.503Z,46
2019-03-27T09:24:49.560Z,39
2019-03-27T09:25:51.881Z,44
2019-03-27T09:26:53.918Z,46
2019-03-27T09:27:55.954Z,43
2019-03-27T09:28:58.002Z,44
2019-03-27T09:30:00.051Z,46
2019-03-27T09:31:02.243Z,45
2019-03-27T09:32:04.273Z,45
2019-03-27T09:33:06.328Z,44
2019-03-27T09:34:08.357Z,40
2019-03-27T09:35:10.683Z,42
2019-03-27T09:36:13.375Z,44
2019-03-27T09:37:15.419Z,42
2019-03-27T09:38:17.451Z,42
2019-03-27T09:39:19.484Z,45
2019-03-27T09:40:21.535Z,50
2019-03-27T09:41:23.618Z,61
2019-03-27T09:42:25.683Z,70
2019-03-27T09:43:27.737Z,69
2019-03-27T09:44:29.760Z,69
2019-03-27T09:45:31.853Z,64
2019-03-27T09:46:34.180Z,61
2019-03-27T09:47:36.607Z,62
2019-03-27T09:48:38.650Z,58
2019-03-27T09:49:51.516Z,55
2019-03-27T09:50:53.853Z,51
2019-03-27T09:51:55.891Z,51
2019-03-27T09:52:57.946Z,55
2019-03-27T09:53:59.979Z,58
2019-03-27T09:55:02.044Z,63
2019-03-27T09:56:19.907Z,59
2019-03-27T09:57:21.944Z,59
2019-03-27T09:58:24.001Z,55
2019-03-27T09:59:26.706Z,52
2019-03-27T10:00:28.749Z,51
2019-03-27T10:01:31.158Z,51
2019-03-27T10:02:33.205Z,51
2019-03-27T10:03:35.328Z,51
2019-03-27T10:04:37.422Z,45
2019-03-27T10:05:39.458Z,43
2019-03-27T10:06:41.497Z,45
2019-03-27T10:07:43.527Z,47
2019-03-27T10:08:45.564Z,46
2019-03-27T10:09:51.186Z,48
2019-03-27T10:10:53.311Z,49
2019-03-27T10:11:55.623Z,49
2019-03-27T10:12:57.664Z,47
2019-03-27T10:14:00.096Z,49
2019-03-27T10:15:02.129Z,50
2019-03-27T10:16:04.192Z,46
2019-03-27T10:17:06.225Z,46
2019-03-27T10:18:08.244Z,50
2019-03-27T10:19:10.558Z,53
2019-03-27T10:20:14.997Z,62
2019-03-27T10:21:17.034Z,62
2019-03-27T10:22:19.098Z,68
2019-03-27T10:23:21.129Z,77
2019-03-27T10:24:23.161Z,71
2019-03-27T10:25:25.514Z,76
2019-03-27T10:26:27.565Z,70
2019-03-27T10:27:29.604Z,58
2019-03-27T10:28:31.652Z,51
2019-03-27T10:29:33.922Z,48
2019-03-27T10:30:35.958Z,61
2019-03-27T10:31:38.402Z,71
2019-03-27T10:32:40.516Z,67
2019-03-27T10:33:42.568Z,63
2019-03-27T10:34:45.189Z,64
2019-03-27T10:35:47.245Z,64
2019-03-27T10:36:49.857Z,60
2019-03-27T10:37:51.895Z,60
2019-03-27T10:38:53.954Z,65
2019-03-27T10:39:56.058Z,75
2019-03-27T10:40:58.431Z,76
2019-03-27T10:42:00.476Z,73
2019-03-27T10:43:02.518Z,68
2019-03-27T10:44:04.541Z,63
2019-03-27T10:45:06.589Z,60
2019-03-27T10:46:08.621Z,54
2019-03-27T10:47:11.040Z,57
2019-03-27T10:48:13.101Z,63
2019-03-27T10:49:15.126Z,73
2019-03-27T10:50:19.395Z,69
2019-03-27T10:51:21.448Z,66
2019-03-27T10:52:23.551Z,64
2019-03-27T10:53:25.584Z,71
2019-03-27T10:54:27.630Z,74
2019-03-27T10:55:29.661Z,75
2019-03-27T10:56:31.988Z,78
2019-03-27T10:57:34.066Z,79
2019-03-27T10:58:36.464Z,80
2019-03-27T10:59:38.576Z,85
2019-03-27T11:00:40.651Z,89
2019-03-27T11:01:43.073Z,76
2019-03-27T11:02:45.124Z,71
2019-03-27T11:03:47.266Z,66
2019-03-27T11:04:49.308Z,74
2019-03-27T11:05:51.382Z,78
2019-03-27T11:06:53.418Z,67
2019-03-27T11:07:55.483Z,56
2019-03-27T11:08:57.506Z,50
2019-03-27T11:09:59.930Z,48
2019-03-27T11:11:02.348Z,47
2019-03-27T11:12:04.842Z,58
2019-03-27T11:13:06.886Z,73
2019-03-27T11:14:09.198Z,74
2019-03-27T11:15:11.254Z,71
2019-03-27T11:16:13.299Z,68
2019-03-27T11:17:15.938Z,61
2019-03-27T11:18:17.969Z,57
2019-03-27T11:19:20.005Z,58
2019-03-27T11:20:33.200Z,65
2019-03-27T11:21:35.232Z,74
2019-03-27T11:22:37.340Z,88
2019-03-27T11:23:39.382Z,98
2019-03-27T11:24:41.449Z,89
2019-03-27T11:25:43.497Z,96
2019-03-27T11:26:45.529Z,101
2019-03-27T11:27:47.566Z,88
2019-03-27T11:28:49.602Z,92
2019-03-27T11:29:51.644Z,99
2019-03-27T11:30:53.704Z,97
2019-03-27T11:31:56.314Z,84
2019-03-27T11:32:58.338Z,65
2019-03-27T11:34:00.785Z,63
2019-03-27T11:35:03.099Z,72
2019-03-27T11:36:05.541Z,56
2019-03-27T11:37:07.882Z,77
2019-03-27T11:38:09.926Z,65
2019-03-27T11:39:11.980Z,68
2019-03-27T11:40:14.425Z,79
2019-03-27T11:41:16.501Z,100
2019-03-27T11:42:18.525Z,172
2019-03-27T11:43:20.949Z,297
2019-03-27T11:44:22.991Z,311
2019-03-27T11:45:25.036Z,108
2019-03-27T11:46:27.411Z,89
2019-03-27T11:47:29.826Z,98
2019-03-27T11:48:31.875Z,114
2019-03-27T11:49:34.306Z,143
2019-03-27T11:50:47.245Z,154
2019-03-27T11:51:49.279Z,141
2019-03-27T11:52:51.344Z,154
2019-03-27T11:53:53.677Z,99
2019-03-27T11:54:55.707Z,94
2019-03-27T11:55:57.762Z,77
2019-03-27T11:56:59.798Z,70
2019-03-27T11:58:01.822Z,69
2019-03-27T11:59:03.866Z,58
2019-03-27T12:00:05.920Z,49
2019-03-27T12:01:07.977Z,52
2019-03-27T12:02:10.027Z,55
2019-03-27T12:03:12.095Z,47
2019-03-27T12:04:14.123Z,50
2019-03-27T12:05:16.171Z,48
2019-03-27T12:06:18.531Z,46
2019-03-27T12:07:20.564Z,61
2019-03-27T12:08:22.614Z,68
2019-03-27T12:09:24.664Z,79
2019-03-27T12:10:27.091Z,91
2019-03-27T12:11:29.143Z,95
2019-03-27T12:12:31.173Z,94
2019-03-27T12:13:33.235Z,87
2019-03-27T12:14:35.649Z,81
2019-03-27T12:15:37.801Z,70
2019-03-27T12:16:39.843Z,54
2019-03-27T12:17:42.312Z,61
2019-03-27T12:18:44.641Z,51
2019-03-27T12:19:46.691Z,50
2019-03-27T12:21:00.913Z,54
2019-03-27T12:22:02.957Z,54
2019-03-27T12:23:05.002Z,58
2019-03-27T12:24:07.121Z,57
2019-03-27T12:25:09.182Z,56
2019-03-27T12:26:11.232Z,58
2019-03-27T12:27:13.314Z,62
2019-03-27T12:28:15.376Z,64
2019-03-27T12:29:19.566Z,64
2019-03-27T12:30:21.613Z,66
2019-03-27T12:31:23.950Z,62
2019-03-27T12:32:26.789Z,59
2019-03-27T12:33:28.846Z,59
2019-03-27T12:34:31.329Z,55
2019-03-27T12:35:33.357Z,59
2019-03-27T12:36:35.397Z,69
2019-03-27T12:37:37.822Z,63
2019-03-27T12:38:39.864Z,61
2019-03-27T12:39:42.467Z,62
2019-03-27T12:40:44.491Z,47
2019-03-27T12:41:46.558Z,40
2019-03-27T12:42:48.603Z,49
2019-03-27T12:43:51.025Z,48
2019-03-27T12:44:53.074Z,49
2019-03-27T12:45:55.106Z,60
2019-03-27T12:46:57.166Z,69
2019-03-27T12:47:59.192Z,72
2019-03-27T12:49:01.244Z,80
2019-03-27T12:50:03.280Z,78
2019-03-27T12:51:14.565Z,77
2019-03-27T12:52:16.657Z,76
2019-03-27T12:53:19.068Z,85
2019-03-27T12:54:21.125Z,80
2019-03-27T12:55:23.163Z,91
2019-03-27T12:56:25.216Z,90
2019-03-27T12:57:27.234Z,78
2019-03-27T12:58:29.276Z,58
2019-03-27T12:59:31.312Z,55
2019-03-27T13:00:33.624Z,62
2019-03-27T13:01:36.066Z,78
2019-03-27T13:02:38.191Z,81
2019-03-27T13:03:40.228Z,70
2019-03-27T13:04:42.361Z,55
2019-03-27T13:05:44.412Z,43
2019-03-27T13:06:46.446Z,41
2019-03-27T13:07:51.982Z,39
2019-03-27T13:08:54.027Z,33
2019-03-27T13:09:56.345Z,32
2019-03-27T13:10:58.404Z,37
2019-03-27T13:12:00.449Z,36
2019-03-27T13:13:02.480Z,35
2019-03-27T13:14:04.556Z,37
2019-03-27T13:15:06.997Z,40
2019-03-27T13:16:09.331Z,40
2019-03-27T13:17:11.381Z,57
2019-03-27T13:18:13.411Z,51
2019-03-27T13:19:15.745Z,43
2019-03-27T13:20:17.789Z,43
2019-03-27T13:21:28.548Z,47
2019-03-27T13:22:30.966Z,40
2019-03-27T13:23:33.291Z,43
2019-03-27T13:24:35.339Z,45
2019-03-27T13:25:37.379Z,45
2019-03-27T13:26:39.432Z,42
2019-03-27T13:27:41.457Z,43
2019-03-27T13:28:50.517Z,52
2019-03-27T13:29:52.550Z,52
2019-03-27T13:30:54.602Z,45
2019-03-27T13:31:57.194Z,40
2019-03-27T13:32:59.231Z,49
2019-03-27T13:34:01.288Z,63
2019-03-27T13:35:03.624Z,46
2019-03-27T13:36:05.678Z,44
2019-03-27T13:37:07.716Z,55
2019-03-27T13:38:10.048Z,61
2019-03-27T13:39:12.091Z,53
2019-03-27T13:40:14.707Z,51
2019-03-27T13:41:16.750Z,69
2019-03-27T13:42:18.796Z,84
2019-03-27T13:43:20.831Z,69
2019-03-27T13:44:38.763Z,65
2019-03-27T13:45:40.818Z,59
2019-03-27T13:46:43.136Z,57
2019-03-27T13:47:45.217Z,50
2019-03-27T13:48:47.267Z,50
2019-03-27T13:49:49.323Z,50
2019-03-27T13:50:51.353Z,39
2019-03-27T13:51:53.408Z,46
2019-03-27T13:52:55.522Z,36
2019-03-27T13:53:57.560Z,34
2019-03-27T13:54:59.590Z,31
2019-03-27T13:56:01.633Z,34
2019-03-27T13:57:03.968Z,45
2019-03-27T13:58:06.722Z,50
2019-03-27T13:59:08.762Z,35
2019-03-27T14:00:10.816Z,35
2019-03-27T14:01:14.304Z,38
2019-03-27T14:02:16.344Z,35
2019-03-27T14:03:18.661Z,35
2019-03-27T14:04:20.711Z,34
2019-03-27T14:05:22.750Z,31
2019-03-27T14:06:24.791Z,35
2019-03-27T14:07:26.842Z,27
2019-03-27T14:08:28.867Z,21
2019-03-27T14:09:30.925Z,25
2019-03-27T14:10:32.966Z,47
2019-03-27T14:11:34.993Z,54
2019-03-27T14:12:37.032Z,62
2019-03-27T14:13:39.146Z,60
2019-03-27T14:14:52.236Z,55
2019-03-27T14:15:54.275Z,39
2019-03-27T14:16:56.711Z,30
2019-03-27T14:17:58.746Z,39
2019-03-27T14:19:00.799Z,43
2019-03-27T14:20:03.198Z,38
2019-03-27T14:21:05.235Z,36
2019-03-27T14:22:07.286Z,38
2019-03-27T14:23:09.337Z,40
2019-03-27T14:24:11.377Z,34
2019-03-27T14:25:13.430Z,37
2019-03-27T14:26:15.758Z,40
2019-03-27T14:27:17.812Z,37
2019-03-27T14:28:19.858Z,44
2019-03-27T14:29:22.233Z,49
2019-03-27T14:30:24.275Z,39
2019-03-27T14:31:26.324Z,43
2019-03-27T14:32:28.365Z,49
2019-03-27T14:33:30.805Z,39
2019-03-27T14:34:32.833Z,44
2019-03-27T14:35:35.162Z,64
2019-03-27T14:36:37.473Z,58
2019-03-27T14:37:39.518Z,60
2019-03-27T14:38:41.551Z,54
2019-03-27T14:39:43.607Z,48
2019-03-27T14:40:45.652Z,37
2019-03-27T14:41:47.674Z,31
2019-03-27T14:42:49.785Z,30
2019-03-27T14:43:51.832Z,28
2019-03-27T14:44:54.148Z,34
2019-03-27T14:45:56.187Z,48
2019-03-27T14:46:58.239Z,45
2019-03-27T14:48:00.289Z,44
2019-03-27T14:49:02.343Z,51
2019-03-27T14:50:04.399Z,47
2019-03-27T14:51:06.422Z,52
2019-03-27T14:52:09.894Z,59
2019-03-27T14:53:12.227Z,58
2019-03-27T14:54:14.259Z,43
2019-03-27T14:55:16.304Z,41
2019-03-27T14:56:18.348Z,37
2019-03-27T14:57:20.381Z,48
2019-03-27T14:58:22.824Z,46
2019-03-27T14:59:24.862Z,38
2019-03-27T15:00:27.180Z,47
2019-03-27T15:01:29.214Z,71
2019-03-27T15:02:31.263Z,75
2019-03-27T15:03:33.302Z,69
2019-03-27T15:04:35.352Z,66